createdAt,value
2022-10-21T00:00:01.752Z,102.59
2022-10-21T00:05:01.979Z,102.62
2022-10-21T00:10:01.725Z,102.67
2022-10-21T00:15:01.996Z,102.92
2022-10-21T00:20:01.372Z,102.91
2022-10-21T00:25:01.970Z,102.66
2022-10-21T00:30:01.961Z,102.59
2022-10-21T00:35:01.768Z,102.51
2022-10-21T00:40:02.124Z,102.2
2022-10-21T00:45:01.683Z,101.55
2022-10-21T00:50:01.817Z,100.75
2022-10-21T00:55:01.913Z,99.75
2022-10-21T01:00:02.147Z,98.98
2022-10-21T01:05:01.410Z,99.33
2022-10-21T01:10:01.601Z,99.58
2022-10-21T01:15:07.908Z,100.22
2022-10-21T01:20:01.634Z,100.3
2022-10-21T01:25:01.973Z,100.39
2022-10-21T01:30:02.217Z,100.82
2022-10-21T04:22:07.554Z,95.95
2022-10-21T04:22:07.563Z,98.36
2022-10-21T04:25:04.637Z,97.98
2022-10-21T04:30:01.581Z,96.82
2022-10-21T04:35:01.789Z,97.03
2022-10-21T04:40:01.801Z,97.17
2022-10-21T04:45:02.100Z,98.68
2022-10-21T04:50:01.804Z,98.66
2022-10-21T04:55:01.783Z,98.45
2022-10-21T05:00:01.472Z,98.58
2022-10-21T05:05:01.973Z,98.63
2022-10-21T05:10:01.451Z,99.01
2022-10-21T05:15:01.897Z,99.75
2022-10-21T05:20:02.212Z,99.86
2022-10-21T05:25:01.750Z,99.67
2022-10-21T05:30:01.868Z,99.89
2022-10-21T05:35:01.527Z,98.29
2022-10-21T05:40:02.070Z,98.66
2022-10-21T05:45:01.547Z,99.06
2022-10-21T05:50:01.829Z,99.22
2022-10-21T05:55:02.172Z,99.42
2022-10-21T06:00:01.751Z,99.36
2022-10-21T06:05:01.338Z,99.52
2022-10-21T06:10:02.221Z,99.39
2022-10-21T06:15:01.793Z,99.41
2022-10-21T06:20:02.028Z,99.53
2022-10-21T06:25:01.394Z,99.61
2022-10-21T06:30:02.180Z,99.45
2022-10-21T06:35:01.544Z,99.15
2022-10-21T06:40:01.568Z,99.36
2022-10-21T06:45:01.335Z,99.37
2022-10-21T06:50:01.420Z,99.21
2022-10-21T06:55:01.493Z,99.21
2022-10-21T07:00:01.687Z,99.02
2022-10-21T07:05:01.421Z,99.07
2022-10-21T07:10:01.818Z,98.63
2022-10-21T07:15:01.856Z,98.93
2022-10-21T07:20:01.574Z,99.45
2022-10-21T07:25:06.684Z,99.62
2022-10-21T07:30:01.585Z,99.6
2022-10-21T07:35:01.258Z,99.56
2022-10-21T07:40:02.231Z,99.86
2022-10-21T07:45:01.559Z,99.69
2022-10-21T07:50:01.331Z,99.66
2022-10-21T07:55:01.807Z,99.85
2022-10-21T08:00:01.442Z,100.08
2022-10-21T08:05:01.506Z,100.26
2022-10-21T08:10:01.871Z,100.08
2022-10-21T08:15:01.687Z,100.19
2022-10-21T08:20:01.430Z,100.85
2022-10-21T08:25:01.821Z,101.45
2022-10-21T08:30:01.545Z,101.55
2022-10-21T08:35:01.916Z,101.62
2022-10-21T08:40:02.063Z,101.75
2022-10-21T08:45:02.098Z,101.66
2022-10-21T08:50:01.803Z,101.91
2022-10-21T08:55:01.806Z,101.84
2022-10-21T09:00:01.777Z,101.84
2022-10-21T09:05:01.518Z,101.58
2022-10-21T09:10:01.439Z,101.58
2022-10-21T09:15:01.840Z,101.29
2022-10-21T09:20:02.031Z,101.53
2022-10-21T09:25:02.078Z,101.69
2022-10-21T09:30:01.465Z,101.85
2022-10-21T09:35:01.668Z,102.16
2022-10-21T09:40:01.650Z,102.5
2022-10-21T09:45:01.885Z,101.99
2022-10-21T09:50:07.456Z,102.26
2022-10-21T09:55:01.668Z,102.65
2022-10-21T10:00:01.609Z,103.11
2022-10-21T10:05:01.708Z,103.52
2022-10-21T10:10:01.640Z,103.51
2022-10-21T10:15:01.944Z,103.28
2022-10-21T10:20:02.305Z,103.42
2022-10-21T10:25:01.491Z,103.51
2022-10-21T10:30:01.391Z,103.55
2022-10-21T10:35:01.974Z,103.24
2022-10-21T10:40:01.587Z,103.08
2022-10-21T10:45:02.262Z,102.86
2022-10-21T10:50:02.239Z,102.75
2022-10-21T10:55:01.871Z,102.92
2022-10-21T11:00:01.536Z,102.66
2022-10-21T11:05:02.042Z,102.67
2022-10-21T11:10:01.652Z,102.06
2022-10-21T11:15:02.245Z,102.07
2022-10-21T11:20:01.725Z,101.72
2022-10-21T11:25:02.223Z,101.77
2022-10-21T11:30:01.837Z,101.51
2022-10-21T11:35:01.452Z,101.36
2022-10-21T11:40:01.357Z,100.47
2022-10-21T11:45:01.769Z,99.93
2022-10-21T11:50:02.158Z,100.51
2022-10-21T11:55:10.000Z,98.99
2022-10-21T12:00:01.714Z,98.46
2022-10-21T12:05:02.041Z,98.57
2022-10-21T12:10:01.360Z,96.72
2022-10-21T12:15:01.527Z,96.16
2022-10-21T12:20:01.292Z,96.74
2022-10-21T12:25:01.405Z,97.76
2022-10-21T12:30:01.819Z,97.55
2022-10-21T12:35:02.096Z,96.62
2022-10-21T12:40:01.404Z,96.99
2022-10-21T12:45:01.941Z,95.83
2022-10-21T12:50:01.235Z,97.11
2022-10-21T12:55:01.935Z,97.11
2022-10-21T13:00:01.834Z,95.8
2022-10-21T13:05:02.172Z,96.47
2022-10-21T13:10:02.153Z,94.54
2022-10-21T13:15:02.223Z,93.65
2022-10-21T13:20:01.953Z,92.59
2022-10-21T13:25:01.549Z,92.92
2022-10-21T13:30:01.701Z,92.16
2022-10-21T13:35:01.287Z,92.31
2022-10-21T13:40:01.866Z,91.1
2022-10-21T13:45:01.478Z,90.52
2022-10-21T13:50:01.548Z,90.23
2022-10-21T13:55:01.757Z,90.07
2022-10-21T14:00:01.485Z,89.55
2022-10-21T14:05:01.589Z,89.77
2022-10-21T14:10:01.526Z,90.22
2022-10-21T14:15:02.248Z,89.56
2022-10-21T14:20:01.658Z,89.84
2022-10-21T14:25:01.726Z,89.9
2022-10-21T14:30:01.461Z,90.93
2022-10-21T14:35:01.594Z,90.15
2022-10-21T14:40:01.338Z,89.68
2022-10-21T14:45:01.663Z,90.77
2022-10-21T14:50:01.361Z,91.11
2022-10-21T14:55:01.364Z,91.46
2022-10-21T15:00:01.628Z,92.56
2022-10-21T15:05:01.657Z,93.98
2022-10-21T15:10:02.047Z,93.77
2022-10-21T15:15:01.510Z,95.24
2022-10-21T15:20:01.702Z,96.24
2022-10-21T15:25:01.291Z,95.22
2022-10-21T15:30:01.538Z,95.32
2022-10-21T15:35:02.010Z,93.99
2022-10-21T15:40:02.092Z,93.77
2022-10-21T15:45:01.771Z,93.58
2022-10-21T15:50:01.474Z,93.92
2022-10-21T15:55:01.907Z,94.41
2022-10-21T16:00:01.685Z,94.19
2022-10-21T16:05:01.439Z,94.37
2022-10-21T16:10:02.125Z,94.14
2022-10-21T16:15:01.737Z,94.06
2022-10-21T16:20:01.547Z,94.09
2022-10-21T16:25:02.254Z,94.29
2022-10-21T16:30:01.729Z,94.76
2022-10-21T16:35:01.427Z,95.03
2022-10-21T16:40:02.140Z,95.51
2022-10-21T16:45:01.689Z,96.28
2022-10-21T16:50:01.655Z,96.9
2022-10-21T16:55:02.265Z,97.05
2022-10-21T17:00:01.595Z,97.18
2022-10-21T17:05:02.092Z,97.48
2022-10-21T17:10:02.210Z,97.77
2022-10-21T17:15:01.799Z,98.3
2022-10-21T17:20:02.074Z,97.93
2022-10-21T17:25:02.456Z,97.98
2022-10-21T17:30:01.948Z,98.16
2022-10-21T17:35:01.392Z,96.2
2022-10-21T17:40:01.858Z,98.38
2022-10-21T17:45:03.783Z,98.39
2022-10-21T17:50:01.542Z,98.02
2022-10-21T17:55:01.452Z,96.44
2022-10-21T18:00:07.433Z,98.37
2022-10-21T18:05:01.462Z,96.24
2022-10-21T18:10:01.343Z,98.27
2022-10-21T18:15:01.451Z,96.33
2022-10-21T18:20:02.333Z,98.5
2022-10-21T18:25:01.382Z,96.47
2022-10-21T18:30:02.256Z,98.04
2022-10-21T18:35:01.495Z,98.64
2022-10-21T18:40:02.329Z,98.34
2022-10-21T18:45:01.449Z,98.53
2022-10-21T18:50:02.224Z,97.08
2022-10-21T18:55:01.851Z,97.08
2022-10-21T19:00:02.057Z,98.63
2022-10-21T19:05:02.680Z,99.05
2022-10-21T19:10:01.340Z,99.51
2022-10-21T19:15:02.121Z,99.68
2022-10-21T19:20:02.361Z,99.69
2022-10-21T19:25:01.560Z,99.66
2022-10-21T19:30:01.520Z,99.65
2022-10-21T19:35:01.607Z,98.41
2022-10-21T19:40:01.644Z,98.64
2022-10-21T19:45:02.842Z,98.64
2022-10-21T19:50:06.788Z,98.56
2022-10-21T19:55:02.110Z,98.5
2022-10-21T20:00:02.182Z,98.04
2022-10-21T20:05:01.687Z,99.76
2022-10-21T20:10:01.741Z,99.72
2022-10-21T20:15:01.683Z,99.62
2022-10-21T20:20:02.102Z,98.27
2022-10-21T20:25:01.496Z,98.36
2022-10-21T20:30:01.623Z,98.42
2022-10-21T20:35:02.143Z,98.37
2022-10-21T20:40:01.466Z,98.78
2022-10-21T20:45:02.095Z,99.24
2022-10-21T20:50:01.930Z,99.51
2022-10-21T20:55:02.266Z,99.69
2022-10-21T21:00:01.400Z,99.73
2022-10-21T21:05:01.504Z,99.8
2022-10-21T21:10:03.351Z,99.76
2022-10-21T21:15:01.504Z,99.79
2022-10-21T21:20:01.832Z,99.54
2022-10-21T21:25:01.802Z,99.33
2022-10-21T21:30:07.268Z,99.3
2022-10-21T21:35:05.043Z,99.21
2022-10-21T21:40:01.840Z,99.06
2022-10-21T21:45:01.552Z,98.99
2022-10-21T21:50:01.907Z,98.91
2022-10-21T21:55:02.251Z,98.92
2022-10-21T22:00:01.706Z,98.76
2022-10-21T22:05:01.780Z,98.95
2022-10-21T22:10:01.427Z,98.99
2022-10-21T22:15:01.653Z,98.96
2022-10-21T22:20:01.782Z,99.05
2022-10-21T22:25:01.751Z,99.12
2022-10-21T22:30:02.008Z,98.98
2022-10-21T22:35:02.023Z,98.94
2022-10-21T22:40:01.865Z,99.11
2022-10-21T22:45:02.182Z,99.19
2022-10-21T22:50:01.403Z,99.37
2022-10-21T22:55:01.517Z,99.53
2022-10-21T23:00:02.150Z,99.68
2022-10-21T23:05:02.180Z,99.77
2022-10-21T23:10:01.726Z,100.04
2022-10-21T23:15:01.615Z,100.05
2022-10-21T23:20:02.076Z,100.24
2022-10-21T23:25:02.506Z,100.33
2022-10-21T23:30:02.257Z,100.59
2022-10-21T23:35:01.413Z,100.61
2022-10-21T23:40:02.490Z,100.75
2022-10-21T23:45:02.183Z,100.67
2022-10-21T23:50:01.644Z,100.42
2022-10-21T23:55:01.967Z,100.49
